createdAt,value
2019-01-05T00:03:24.190Z,95.56
2019-01-05T00:08:50.755Z,95.07
2019-01-05T00:14:26.181Z,94.56
2019-01-05T00:20:10.392Z,94.14
2019-01-05T00:25:37.375Z,94.02
2019-01-05T00:30:55.741Z,93.94
2019-01-05T00:36:45.375Z,94.10
2019-01-05T00:42:23.242Z,93.97
2019-01-05T00:47:47.716Z,93.65
2019-01-05T00:53:18.125Z,93.58
2019-01-05T00:58:57.697Z,93.46
2019-01-05T01:04:25.997Z,93.53
2019-01-05T01:09:48.258Z,93.71
2019-01-05T01:15:19.484Z,93.38
2019-01-05T01:20:41.473Z,93.17
2019-01-05T01:26:05.168Z,93.25
2019-01-05T01:31:29.638Z,93.75
2019-01-05T01:36:52.023Z,94.02
2019-01-05T01:42:22.232Z,94.08
2019-01-05T01:47:52.855Z,93.96
2019-01-05T01:53:17.423Z,94.14
2019-01-05T01:58:44.235Z,94.49
2019-01-05T02:04:12.052Z,94.38
2019-01-05T02:09:35.701Z,94.52
2019-01-05T02:15:08.468Z,94.59
2019-01-05T02:20:50.956Z,95.26
2019-01-05T02:27:00.657Z,95.38
2019-01-05T02:33:31.315Z,95.82
2019-01-05T02:39:32.277Z,95.37
2019-01-05T02:45:38.070Z,95.24
2019-01-05T02:51:38.802Z,95.44
2019-01-05T02:57:27.986Z,95.56
2019-01-05T03:03:30.227Z,95.68
2019-01-05T03:09:39.233Z,96.12
2019-01-05T03:15:35.896Z,96.24
2019-01-05T03:21:43.709Z,95.86
2019-01-05T03:28:03.545Z,95.59
2019-01-05T03:34:12.981Z,95.22
2019-01-05T03:40:29.477Z,94.92
2019-01-05T03:46:44.704Z,95.20
2019-01-05T03:52:58.288Z,94.65
2019-01-05T03:59:23.634Z,95.06
2019-01-05T04:05:28.025Z,94.77
2019-01-05T04:17:56.855Z,94.86
2019-01-05T04:24:09.231Z,94.85
2019-01-05T04:29:41.288Z,94.83
2019-01-05T04:35:52.196Z,94.95
2019-01-05T04:41:53.419Z,94.80
2019-01-05T04:47:41.510Z,94.45
2019-01-05T04:53:41.239Z,95.61
2019-01-05T04:59:48.751Z,95.67
2019-01-05T05:05:58.109Z,95.75
2019-01-05T05:12:00.304Z,96.06
2019-01-05T05:18:07.349Z,96.69
2019-01-05T05:24:22.551Z,96.80
2019-01-05T05:30:20.726Z,96.95
2019-01-05T05:36:24.832Z,97.07
2019-01-05T05:42:42.280Z,97.46
2019-01-05T05:48:46.699Z,97.25
2019-01-05T05:55:14.497Z,96.73
2019-01-05T06:01:17.367Z,96.94
2019-01-05T06:07:41.076Z,97.29
2019-01-05T06:13:33.452Z,97.54
2019-01-05T06:19:32.800Z,97.53
2019-01-05T06:25:42.976Z,97.50
2019-01-05T06:31:59.140Z,97.83
2019-01-05T06:38:02.547Z,97.79
2019-01-05T06:44:08.204Z,98.26
2019-01-05T06:49:57.265Z,98.66
2019-01-05T06:56:19.189Z,99.05
2019-01-05T07:02:07.570Z,99.37
2019-01-05T07:08:01.681Z,99.49
2019-01-05T07:13:59.277Z,99.63
2019-01-05T07:20:25.760Z,99.72
2019-01-05T07:26:34.651Z,99.78
2019-01-05T07:32:45.663Z,99.69
2019-01-05T07:38:55.740Z,99.55
2019-01-05T07:45:04.242Z,99.52
2019-01-05T07:51:27.481Z,99.46
2019-01-05T07:57:50.030Z,99.56
2019-01-05T08:04:03.581Z,99.56
2019-01-05T08:10:10.568Z,99.41
2019-01-05T08:16:17.951Z,99.19
2019-01-05T08:22:15.105Z,99.38
2019-01-05T08:28:23.192Z,99.34
2019-01-05T08:34:34.608Z,99.27
2019-01-05T08:40:44.614Z,99.27
2019-01-05T08:47:15.960Z,99.34
2019-01-05T08:53:18.690Z,99.51
2019-01-05T08:59:45.855Z,99.55
2019-01-05T09:05:58.921Z,99.66
2019-01-05T09:12:10.995Z,99.79
2019-01-05T09:18:10.199Z,99.79
2019-01-05T09:24:18.283Z,99.72
2019-01-05T09:30:34.801Z,99.57
2019-01-05T09:36:30.236Z,99.50
2019-01-05T09:42:42.491Z,99.54
2019-01-05T09:49:12.309Z,99.55
2019-01-05T09:55:05.537Z,99.42
2019-01-05T10:00:59.150Z,99.27
2019-01-05T10:06:58.200Z,99.16
2019-01-05T10:12:51.536Z,99.10
2019-01-05T10:19:03.266Z,98.99
2019-01-05T10:25:18.171Z,98.67
2019-01-05T10:31:32.792Z,98.91
2019-01-05T10:37:31.452Z,99.10
2019-01-05T10:43:36.831Z,99.14
2019-01-05T10:49:46.880Z,98.95
2019-01-05T10:55:51.031Z,98.62
2019-01-05T11:01:41.375Z,98.62
2019-01-05T11:07:55.210Z,98.40
2019-01-05T11:14:02.516Z,98.38
2019-01-05T11:20:11.579Z,98.37
2019-01-05T11:26:19.288Z,98.21
2019-01-05T11:32:10.383Z,97.65
2019-01-05T11:38:16.726Z,97.57
2019-01-05T11:44:05.727Z,97.71
2019-01-05T11:50:11.070Z,97.57
2019-01-05T11:56:10.730Z,97.42
2019-01-05T12:02:19.874Z,97.67
2019-01-05T12:08:31.299Z,97.60
2019-01-05T12:14:32.738Z,97.62
2019-01-05T12:20:11.363Z,97.75
2019-01-05T12:26:00.376Z,97.73
2019-01-05T12:32:14.147Z,97.51
2019-01-05T12:38:07.006Z,96.69
2019-01-05T12:44:31.232Z,96.51
2019-01-05T12:50:39.243Z,96.12
2019-01-05T12:56:50.083Z,94.87
2019-01-05T13:03:01.907Z,94.35
2019-01-05T13:09:30.045Z,93.76
2019-01-05T13:15:59.248Z,93.40
2019-01-05T13:22:11.381Z,92.72
2019-01-05T13:28:34.121Z,93.33
2019-01-05T13:35:08.478Z,93.56
2019-01-05T13:41:15.440Z,93.21
2019-01-05T13:47:33.756Z,92.64
2019-01-05T13:53:43.119Z,92.70
2019-01-05T13:59:07.021Z,93.55
2019-01-05T14:04:30.300Z,93.27
2019-01-05T14:09:57.353Z,92.57
2019-01-05T14:15:36.648Z,92.87
2019-01-05T14:20:57.793Z,93.28
2019-01-05T14:26:20.601Z,93.01
2019-01-05T14:31:46.690Z,93.07
2019-01-05T14:37:18.401Z,93.36
2019-01-05T14:42:54.571Z,93.20
2019-01-05T14:48:17.649Z,93.73
2019-01-05T14:53:50.967Z,93.68
2019-01-05T14:59:14.115Z,93.69
2019-01-05T15:04:37.243Z,93.37
2019-01-05T15:10:10.399Z,93.51
2019-01-05T15:15:40.587Z,92.95
2019-01-05T15:21:17.142Z,93.25
2019-01-05T15:26:40.237Z,93.16
2019-01-05T15:32:04.769Z,93.75
2019-01-05T15:37:41.356Z,93.38
2019-01-05T15:43:05.789Z,93.11
2019-01-05T15:48:29.036Z,93.05
2019-01-05T15:53:54.112Z,92.78
2019-01-05T15:59:36.376Z,92.12
2019-01-05T16:04:59.156Z,92.39
2019-01-05T16:10:23.446Z,92.73
2019-01-05T16:16:06.544Z,92.32
2019-01-05T16:21:37.759Z,92.17
2019-01-05T16:27:00.536Z,92.00
2019-01-05T16:32:23.941Z,91.87
2019-01-05T16:37:46.995Z,91.44
2019-01-05T16:43:16.351Z,91.95
2019-01-05T16:48:35.285Z,91.83
2019-01-05T16:54:01.318Z,92.15
2019-01-05T16:59:29.273Z,92.23
2019-01-05T17:05:09.482Z,92.65
2019-01-05T17:10:47.610Z,92.54
2019-01-05T17:16:21.266Z,92.61
2019-01-05T17:21:58.948Z,92.83
2019-01-05T17:27:22.299Z,93.29
2019-01-05T17:32:46.473Z,93.39
2019-01-05T17:38:16.069Z,93.16
2019-01-05T17:43:58.617Z,93.31
2019-01-05T17:49:19.519Z,93.54
2019-01-05T17:54:49.740Z,93.40
2019-01-05T18:00:10.706Z,93.89
2019-01-05T18:05:30.573Z,94.33
2019-01-05T18:10:55.498Z,94.78
2019-01-05T18:16:22.049Z,95.09
2019-01-05T18:21:44.856Z,95.33
2019-01-05T18:27:07.550Z,95.52
2019-01-05T18:32:30.650Z,95.57
2019-01-05T18:38:04.887Z,96.03
2019-01-05T18:43:28.429Z,96.50
2019-01-05T18:48:54.969Z,96.85
2019-01-05T18:54:29.186Z,97.22
2019-01-05T18:59:57.462Z,97.37
2019-01-05T19:05:27.688Z,97.43
2019-01-05T19:11:00.847Z,97.59
2019-01-05T19:16:31.361Z,97.96
2019-01-05T19:21:54.818Z,98.11
2019-01-05T19:27:22.254Z,98.23
2019-01-05T19:32:45.292Z,98.11
2019-01-05T19:38:08.512Z,98.10
2019-01-05T19:43:40.761Z,98.17
2019-01-05T19:49:14.238Z,98.07
2019-01-05T19:54:47.951Z,97.92
2019-01-05T20:00:08.306Z,97.46
2019-01-05T20:05:31.044Z,97.11
2019-01-05T20:10:54.509Z,97.23
2019-01-05T20:16:18.861Z,96.68
2019-01-05T20:21:49.859Z,96.18
2019-01-05T20:27:12.723Z,96.13
2019-01-05T20:32:32.664Z,96.33
2019-01-05T20:37:51.353Z,96.67
2019-01-05T20:43:24.736Z,96.78
2019-01-05T20:48:48.330Z,96.13
2019-01-05T20:54:11.558Z,96.09
2019-01-05T20:59:48.656Z,96.02
2019-01-05T21:05:11.517Z,95.76
2019-01-05T21:10:34.371Z,95.43
2019-01-05T21:16:13.685Z,95.29
2019-01-05T21:21:49.914Z,95.16
2019-01-05T21:27:13.480Z,94.92
2019-01-05T21:32:51.006Z,95.09
2019-01-05T21:38:15.607Z,95.12
2019-01-05T21:43:35.432Z,95.04
2019-01-05T21:49:04.127Z,95.12
2019-01-05T21:54:26.079Z,95.32
2019-01-05T21:59:49.868Z,95.27
2019-01-05T22:05:13.088Z,95.41
2019-01-05T22:10:37.656Z,95.86
2019-01-05T22:16:11.117Z,95.90
2019-01-05T22:21:50.810Z,95.88
2019-01-05T22:27:14.791Z,95.92
2019-01-05T22:32:37.544Z,95.88
2019-01-05T22:38:21.191Z,95.70
2019-01-05T22:44:00.708Z,95.58
2019-01-05T22:49:24.423Z,95.38
2019-01-05T22:54:45.023Z,95.06
2019-01-05T23:00:15.839Z,95.21
2019-01-05T23:05:46.923Z,94.93
2019-01-05T23:11:14.507Z,94.99
2019-01-05T23:16:41.736Z,95.06
2019-01-05T23:22:12.120Z,94.96
2019-01-05T23:27:40.247Z,95.09
2019-01-05T23:33:13.214Z,94.64
2019-01-05T23:38:36.412Z,94.21
2019-01-05T23:44:16.017Z,93.65
2019-01-05T23:49:42.210Z,93.62
2019-01-05T23:55:15.576Z,93.54
